Terminal Aerodrome Forecast
Issued by NWS

Home | Current Version | Previous Version | Text Only | Print | Product List | Glossary On
Versions: 1 2 3 4 5 6 7 8 9 10 11 12 13 14
000
FTUS46 KSEW 211700 RRA
TAFBFI
TAF
KBFI 211756Z 2118/2218 17005KT P6SM OVC025
     FM212000 23006KT P6SM SCT030
     FM220600 VRB03KT P6SM BKN050
     FM221200 VRB03KT P6SM BKN030
     FM221600 VRB03KT P6SM SCT040=

USA.gov is the U.S. government's official web portal to all federal, state and local government web resources and services.